Time;durP1;ratioP1;P1;durP2;ratioP2;P2;SDS_P1;SDS_P2;PMS_P1;PMS_P2;Temp;Humidity;BMP_temperature;BMP_pressure;BME280_temperature;BME280_humidity;BME280_pressure;Samples;Min_cycle;Max_cycle;Signal;HPM_P1;HPM_P2
2024/01/31 00:01:45;;;;;;;1999.90;999.90;;;2.60;90.40;;;;;;5104364;28;20028;-74
2024/01/31 00:04:10;;;;;;;1999.90;999.90;;;2.60;90.20;;;;;;5085173;28;20031;-73
2024/01/31 00:06:36;;;;;;;1999.90;999.90;;;2.70;90.30;;;;;;5104413;27;20111;-73
2024/01/31 00:09:02;;;;;;;1999.90;999.90;;;2.70;90.30;;;;;;5101890;28;20126;-73
2024/01/31 00:11:28;;;;;;;1999.90;999.90;;;2.70;90.30;;;;;;5104312;27;20474;-73
2024/01/31 00:13:58;;;;;;;1999.90;999.90;;;2.70;90.30;;;;;;5105280;27;20045;-72
2024/01/31 00:16:24;;;;;;;1999.90;999.90;;;2.70;90.20;;;;;;5098933;27;20043;-73
2024/01/31 00:18:50;;;;;;;1999.90;999.90;;;2.80;90.10;;;;;;5099655;28;20063;-73
2024/01/31 00:21:17;;;;;;;1999.90;999.90;;;2.80;90.00;;;;;;5103960;27;20025;-73
2024/01/31 00:23:43;;;;;;;1999.90;999.90;;;2.90;89.80;;;;;;5103347;28;20027;-73
2024/01/31 00:26:09;;;;;;;1999.90;999.90;;;3.00;89.70;;;;;;5104739;28;20104;-73
2024/01/31 00:28:34;;;;;;;1999.90;999.90;;;3.00;89.40;;;;;;5104701;28;20042;-72
2024/01/31 00:31:01;;;;;;;1999.90;999.90;;;3.00;89.10;;;;;;5104697;28;20440;-74
2024/01/31 00:33:27;;;;;;;1999.90;999.90;;;3.00;89.20;;;;;;5105578;27;20027;-73
2024/01/31 00:35:53;;;;;;;1999.90;999.90;;;3.10;89.00;;;;;;5104045;28;20035;-73
2024/01/31 00:38:19;;;;;;;1999.90;999.90;;;3.10;88.70;;;;;;5085043;28;20053;-73
2024/01/31 00:40:44;;;;;;;1999.90;999.90;;;3.10;88.60;;;;;;5081447;28;20143;-74
2024/01/31 00:43:10;;;;;;;1999.90;999.90;;;3.00;88.70;;;;;;5099546;28;20039;-73
2024/01/31 00:45:36;;;;;;;1999.90;999.90;;;3.00;89.00;;;;;;5103509;28;20073;-72
2024/01/31 00:48:02;;;;;;;1999.90;999.90;;;2.90;88.90;;;;;;5104362;27;20088;-73
2024/01/31 00:50:28;;;;;;;1999.90;999.90;;;3.00;89.20;;;;;;5103383;28;20035;-74
2024/01/31 00:52:54;;;;;;;1999.90;999.90;;;3.00;89.60;;;;;;5088822;28;20156;-73
2024/01/31 00:55:19;;;;;;;1999.90;999.90;;;3.10;89.50;;;;;;5104101;28;20032;-73
2024/01/31 00:57:46;;;;;;;1999.90;999.90;;;3.10;89.40;;;;;;5093895;28;20040;-73
2024/01/31 01:00:14;;;;;;;1999.90;999.90;;;3.10;89.20;;;;;;5108561;28;20027;-73
2024/01/31 01:02:40;;;;;;;1999.90;999.90;;;3.10;88.90;;;;;;5106372;27;20373;-74
2024/01/31 01:05:09;;;;;;;1999.90;999.90;;;3.00;88.80;;;;;;5106392;27;20490;-73
2024/01/31 01:07:41;;;;;;;1999.90;999.90;;;2.90;88.80;;;;;;5088745;28;20034;-73
2024/01/31 01:10:12;;;;;;;1999.90;999.90;;;2.80;89.40;;;;;;5107744;28;20120;-73
2024/01/31 01:12:41;;;;;;;1999.90;999.90;;;2.80;89.80;;;;;;5088143;28;20168;-73
2024/01/31 01:15:08;;;;;;;1999.90;999.90;;;2.80;90.00;;;;;;5109421;28;20032;-73
2024/01/31 01:17:35;;;;;;;1999.90;999.90;;;2.80;90.00;;;;;;5110403;27;20538;-73
2024/01/31 01:20:00;;;;;;;1999.90;999.90;;;3.10;89.50;;;;;;5090662;28;20063;-73
2024/01/31 01:22:26;;;;;;;1999.90;999.90;;;3.30;88.20;;;;;;5105855;28;20588;-73
2024/01/31 01:24:52;;;;;;;1999.90;999.90;;;3.30;87.30;;;;;;5085810;28;20101;-72
2024/01/31 01:27:18;;;;;;;1999.90;999.90;;;3.40;87.30;;;;;;5108294;27;20020;-73
2024/01/31 01:29:45;;;;;;;1999.90;999.90;;;3.50;86.90;;;;;;5105048;27;20027;-73
2024/01/31 01:32:10;;;;;;;1999.90;999.90;;;3.40;86.60;;;;;;5108557;27;20144;-73
2024/01/31 01:34:40;;;;;;;1999.90;999.90;;;3.40;86.50;;;;;;5102178;27;20549;-73
2024/01/31 01:37:06;;;;;;;1999.90;999.90;;;3.20;86.90;;;;;;5091344;27;20044;-74
2024/01/31 01:39:31;;;;;;;1999.90;999.90;;;3.10;87.10;;;;;;5106301;28;20038;-73
2024/01/31 01:41:58;;;;;;;1999.90;999.90;;;3.10;88.00;;;;;;5109804;28;20426;-73
2024/01/31 01:44:23;;;;;;;1999.90;999.90;;;3.20;87.90;;;;;;5108467;27;20165;-73
2024/01/31 01:46:50;;;;;;;1999.90;999.90;;;3.20;87.80;;;;;;5073949;28;20064;-73
2024/01/31 01:49:16;;;;;;;1999.90;999.90;;;3.20;87.60;;;;;;5106993;28;20109;-73
2024/01/31 01:51:44;;;;;;;1999.90;999.90;;;3.10;87.80;;;;;;5076578;27;20031;-73
2024/01/31 01:54:12;;;;;;;1999.90;999.90;;;2.90;88.20;;;;;;5109760;28;20100;-73
2024/01/31 01:56:43;;;;;;;1999.90;999.90;;;2.90;88.80;;;;;;5102363;27;20626;-73
2024/01/31 01:59:10;;;;;;;1999.90;999.90;;;2.80;89.40;;;;;;5100438;28;20036;-73
2024/01/31 02:01:37;;;;;;;1999.90;999.90;;;2.80;89.80;;;;;;5101268;28;20035;-73
2024/01/31 02:04:05;;;;;;;1999.90;999.90;;;2.70;89.80;;;;;;5106805;27;20066;-73
2024/01/31 02:06:30;;;;;;;1999.90;999.90;;;2.90;90.20;;;;;;5106938;27;20048;-73
2024/01/31 02:08:58;;;;;;;1999.90;999.90;;;2.80;90.00;;;;;;5108585;28;20023;-73
2024/01/31 02:11:24;;;;;;;1999.90;999.90;;;2.80;89.90;;;;;;5106607;28;20629;-73
2024/01/31 02:13:50;;;;;;;1999.90;999.90;;;2.90;89.90;;;;;;5107990;27;20119;-73
2024/01/31 02:16:15;;;;;;;1999.90;999.90;;;3.00;89.30;;;;;;5102301;28;20081;-74
2024/01/31 02:18:41;;;;;;;1999.90;999.90;;;3.00;88.70;;;;;;5105227;28;20038;-73
2024/01/31 02:21:07;;;;;;;1999.90;999.90;;;2.90;88.40;;;;;;5104118;27;20051;-73
2024/01/31 02:23:32;;;;;;;1999.90;999.90;;;2.80;89.00;;;;;;5085825;28;20110;-73
2024/01/31 02:25:58;;;;;;;1999.90;999.90;;;2.70;89.30;;;;;;5100752;27;20172;-74
2024/01/31 02:28:23;;;;;;;1999.90;999.90;;;2.60;89.50;;;;;;5090585;28;20020;-72
2024/01/31 02:30:50;;;;;;;1999.90;999.90;;;2.50;90.00;;;;;;5108383;27;20903;-73
2024/01/31 02:33:17;;;;;;;1999.90;999.90;;;2.50;90.20;;;;;;5102603;27;20035;-73
2024/01/31 02:35:43;;;;;;;1999.90;999.90;;;2.50;90.30;;;;;;5107078;28;20028;-73
2024/01/31 02:38:09;;;;;;;1999.90;999.90;;;2.40;90.30;;;;;;5103252;27;20028;-73
2024/01/31 02:40:34;;;;;;;1999.90;999.90;;;2.40;90.40;;;;;;5105422;27;20102;-72
2024/01/31 02:43:00;;;;;;;1999.90;999.90;;;2.30;90.50;;;;;;5076521;27;20024;-72
2024/01/31 02:45:27;;;;;;;1999.90;999.90;;;2.30;90.70;;;;;;5103893;27;20044;-73
2024/01/31 02:47:53;;;;;;;1999.90;999.90;;;2.40;90.80;;;;;;5086470;28;20051;-73
2024/01/31 02:50:19;;;;;;;1999.90;999.90;;;2.60;90.90;;;;;;5104249;28;20070;-73
2024/01/31 02:52:44;;;;;;;1999.90;999.90;;;2.60;90.70;;;;;;5105967;27;20649;-73
2024/01/31 02:55:10;;;;;;;1999.90;999.90;;;2.50;90.70;;;;;;5103211;28;20092;-72
2024/01/31 02:57:36;;;;;;;1999.90;999.90;;;2.60;90.70;;;;;;5108618;27;20669;-72
2024/01/31 03:00:02;;;;;;;1999.90;999.90;;;2.50;90.50;;;;;;5104988;27;20039;-73
2024/01/31 03:02:28;;;;;;;1999.90;999.90;;;2.40;90.50;;;;;;5105603;27;20031;-73
2024/01/31 03:04:53;;;;;;;1999.90;999.90;;;2.40;90.60;;;;;;5106106;28;20398;-74
2024/01/31 03:07:19;;;;;;;1999.90;999.90;;;2.30;90.60;;;;;;5087843;28;20032;-73
2024/01/31 03:09:45;;;;;;;1999.90;999.90;;;2.30;90.60;;;;;;5106829;27;20665;-73
2024/01/31 03:12:11;;;;;;;1999.90;999.90;;;2.10;90.50;;;;;;5102354;27;20451;-73
2024/01/31 03:14:36;;;;;;;1999.90;999.90;;;2.00;90.90;;;;;;5089286;28;20047;-72
2024/01/31 03:17:03;;;;;;;1999.90;999.90;;;2.00;90.70;;;;;;5100409;27;20577;-72
2024/01/31 03:19:30;;;;;;;1999.90;999.90;;;1.90;90.70;;;;;;5097760;27;20043;-73
2024/01/31 03:21:56;;;;;;;1999.90;999.90;;;2.00;90.80;;;;;;5086132;28;20486;-72
2024/01/31 03:24:22;;;;;;;1999.90;999.90;;;1.60;91.00;;;;;;5081848;27;20110;-73
2024/01/31 03:26:48;;;;;;;1999.90;999.90;;;1.60;91.30;;;;;;5101329;28;20023;-72
2024/01/31 03:29:13;;;;;;;1999.90;999.90;;;1.70;91.50;;;;;;5103870;28;20409;-73
2024/01/31 03:31:39;;;;;;;1999.90;999.90;;;1.70;91.70;;;;;;5102282;28;20583;-74
2024/01/31 03:34:05;;;;;;;1999.90;999.90;;;1.60;91.60;;;;;;5102294;28;20763;-73
2024/01/31 03:36:31;;;;;;;1999.90;999.90;;;1.60;91.50;;;;;;5102260;27;20021;-73
2024/01/31 03:38:58;;;;;;;1999.90;999.90;;;1.50;91.60;;;;;;5101938;27;20043;-73
2024/01/31 03:41:28;;;;;;;1999.90;999.90;;;1.50;91.70;;;;;;5097400;28;20054;-73
2024/01/31 03:43:54;;;;;;;1999.90;999.90;;;1.50;91.80;;;;;;5105492;27;20554;-73
2024/01/31 03:46:20;;;;;;;1999.90;999.90;;;1.60;92.00;;;;;;5102852;27;20039;-73
2024/01/31 03:48:46;;;;;;;1999.90;999.90;;;1.70;92.00;;;;;;5081346;28;20766;-73
2024/01/31 03:51:22;;;;;;;1999.90;999.90;;;1.80;91.90;;;;;;5101888;28;20062;-73
2024/01/31 03:53:50;;;;;;;1999.90;999.90;;;1.80;91.80;;;;;;5104169;28;20026;-73
2024/01/31 03:56:16;;;;;;;1999.90;999.90;;;2.00;92.10;;;;;;5101073;28;20016;-73
2024/01/31 03:58:43;;;;;;;1999.90;999.90;;;2.10;92.00;;;;;;5096927;28;20385;-73
2024/01/31 04:01:09;;;;;;;1999.90;999.90;;;2.20;91.90;;;;;;5100990;28;20023;-75
2024/01/31 04:03:37;;;;;;;1999.90;999.90;;;2.40;92.00;;;;;;5101702;28;20057;-73
2024/01/31 04:06:02;;;;;;;1999.90;999.90;;;2.50;91.60;;;;;;5100128;28;20077;-75
2024/01/31 04:08:28;;;;;;;1999.90;999.90;;;2.70;91.20;;;;;;5110240;27;20047;-73
2024/01/31 04:10:55;;;;;;;1999.90;999.90;;;2.70;90.90;;;;;;5085726;28;20115;-74
2024/01/31 04:13:21;;;;;;;1999.90;999.90;;;2.80;90.70;;;;;;5107976;27;20066;-74
2024/01/31 04:15:47;;;;;;;1999.90;999.90;;;2.80;90.40;;;;;;5085924;28;20105;-73
2024/01/31 04:18:12;;;;;;;1999.90;999.90;;;2.70;90.30;;;;;;5086221;28;20043;-73
2024/01/31 04:20:38;;;;;;;1999.90;999.90;;;2.70;90.40;;;;;;5102305;28;20028;-73
2024/01/31 04:23:05;;;;;;;1999.90;999.90;;;2.60;90.40;;;;;;5103239;28;20653;-73
2024/01/31 04:25:31;;;;;;;1999.90;999.90;;;2.60;90.60;;;;;;5102496;28;20043;-73
2024/01/31 04:27:56;;;;;;;1999.90;999.90;;;2.50;90.70;;;;;;5099189;28;20042;-73
2024/01/31 04:30:22;;;;;;;1999.90;999.90;;;2.40;90.80;;;;;;5081749;28;20505;-73
2024/01/31 04:32:47;;;;;;;1999.90;999.90;;;2.40;91.30;;;;;;5098844;28;20479;-74
2024/01/31 04:35:13;;;;;;;1999.90;999.90;;;2.30;90.80;;;;;;5081621;28;20024;-73
2024/01/31 04:37:39;;;;;;;1999.90;999.90;;;2.40;90.90;;;;;;5100550;28;20030;-74
2024/01/31 04:40:09;;;;;;;1999.90;999.90;;;2.50;90.70;;;;;;5102426;28;20035;-73
2024/01/31 04:42:36;;;;;;;1999.90;999.90;;;2.50;90.60;;;;;;5104892;28;20036;-73
2024/01/31 04:45:02;;;;;;;1999.90;999.90;;;2.50;90.60;;;;;;5104104;28;20119;-73
2024/01/31 04:47:27;;;;;;;1999.90;999.90;;;2.50;90.60;;;;;;5086713;28;20088;-72
2024/01/31 04:49:56;;;;;;;1999.90;999.90;;;2.50;90.60;;;;;;5103039;28;20038;-73
2024/01/31 04:52:22;;;;;;;1999.90;999.90;;;2.50;90.70;;;;;;5082872;28;20051;-73
2024/01/31 04:54:48;;;;;;;1999.90;999.90;;;2.50;90.60;;;;;;5084409;28;20324;-73
2024/01/31 04:57:13;;;;;;;1999.90;999.90;;;2.50;90.50;;;;;;5098946;28;20524;-74
2024/01/31 04:59:55;;;;;;;1999.90;999.90;;;2.50;90.60;;;;;;5098437;28;20039;-74
2024/01/31 05:02:21;;;;;;;1999.90;999.90;;;2.50;90.60;;;;;;5100479;28;20019;-73
2024/01/31 05:04:46;;;;;;;1999.90;999.90;;;2.50;90.50;;;;;;5086750;28;20078;-74
2024/01/31 05:07:12;;;;;;;1999.90;999.90;;;2.50;90.60;;;;;;5082726;28;20429;-74
2024/01/31 05:09:38;;;;;;;1999.90;999.90;;;2.60;90.90;;;;;;5102544;28;20664;-73
2024/01/31 05:12:04;;;;;;;1999.90;999.90;;;2.70;90.30;;;;;;5104444;28;20043;-73
2024/01/31 05:14:30;;;;;;;1999.90;999.90;;;2.70;90.20;;;;;;5102462;28;20100;-73
2024/01/31 05:16:55;;;;;;;1999.90;999.90;;;2.70;90.10;;;;;;5102778;28;20465;-73
2024/01/31 05:19:21;;;;;;;1999.90;999.90;;;2.70;90.00;;;;;;5078651;28;20044;-74
2024/01/31 05:21:50;;;;;;;1999.90;999.90;;;2.80;90.00;;;;;;5082745;28;20041;-73
2024/01/31 05:24:17;;;;;;;1999.90;999.90;;;2.80;89.60;;;;;;5097989;28;20032;-73
2024/01/31 05:26:45;;;;;;;1999.90;999.90;;;2.90;89.30;;;;;;5101011;28;20020;-74
2024/01/31 05:29:10;;;;;;;1999.90;999.90;;;2.90;89.10;;;;;;5087452;28;20117;-73
2024/01/31 05:31:36;;;;;;;1999.90;999.90;;;3.00;88.90;;;;;;5102537;28;20044;-74
2024/01/31 05:34:02;;;;;;;1999.90;999.90;;;3.10;88.50;;;;;;5102954;28;20027;-73
2024/01/31 05:36:28;;;;;;;1999.90;999.90;;;3.20;88.30;;;;;;5101562;28;20027;-74
2024/01/31 05:38:53;;;;;;;1999.90;999.90;;;3.20;88.20;;;;;;5083451;28;20450;-73
2024/01/31 05:41:19;;;;;;;1999.90;999.90;;;3.30;88.00;;;;;;5104592;28;20520;-73
2024/01/31 05:43:45;;;;;;;1999.90;999.90;;;3.30;87.80;;;;;;5100853;28;20028;-74
2024/01/31 05:46:15;;;;;;;1999.90;999.90;;;3.30;87.70;;;;;;5074557;28;20066;-73
2024/01/31 05:48:42;;;;;;;1999.90;999.90;;;3.30;87.70;;;;;;5103015;27;20073;-74
2024/01/31 05:51:08;;;;;;;1999.90;999.90;;;3.30;87.60;;;;;;5107284;27;20358;-73
2024/01/31 05:53:33;;;;;;;1999.90;999.90;;;3.30;87.40;;;;;;5105195;28;20469;-73
2024/01/31 05:55:59;;;;;;;1999.90;999.90;;;3.30;87.50;;;;;;5103881;27;20031;-73
2024/01/31 05:58:25;;;;;;;1999.90;999.90;;;3.20;87.50;;;;;;5103042;28;20051;-74
2024/01/31 06:00:52;;;;;;;1999.90;999.90;;;3.20;87.80;;;;;;5109242;27;20122;-74
2024/01/31 06:03:18;;;;;;;1999.90;999.90;;;3.20;88.00;;;;;;5107530;28;20032;-74
2024/01/31 06:05:44;;;;;;;1999.90;999.90;;;3.30;87.90;;;;;;5101827;28;20028;-74
2024/01/31 06:08:09;;;;;;;1999.90;999.90;;;3.40;87.50;;;;;;5087420;28;20455;-74
2024/01/31 06:10:35;;;;;;;1999.90;999.90;;;3.40;87.30;;;;;;5092398;28;20042;-73
2024/01/31 06:13:01;;;;;;;1999.90;999.90;;;3.50;87.10;;;;;;5085490;28;20042;-74
2024/01/31 06:15:26;;;;;;;1999.90;999.90;;;3.50;87.10;;;;;;5103453;27;20055;-73
2024/01/31 06:17:52;;;;;;;1999.90;999.90;;;3.50;87.10;;;;;;5104182;28;20040;-74
2024/01/31 06:20:19;;;;;;;1999.90;999.90;;;3.50;87.30;;;;;;5083264;28;20482;-75
2024/01/31 06:22:45;;;;;;;1999.90;999.90;;;3.50;87.00;;;;;;5085310;27;20771;-75
2024/01/31 06:25:11;;;;;;;1999.90;999.90;;;3.50;87.00;;;;;;5105988;27;20046;-74
2024/01/31 06:27:38;;;;;;;1999.90;999.90;;;3.50;86.80;;;;;;5102295;27;20732;-79
2024/01/31 06:30:04;;;;;;;1999.90;999.90;;;3.50;86.80;;;;;;5100948;27;20036;-81
2024/01/31 06:32:33;;;;;;;1999.90;999.90;;;3.50;87.10;;;;;;5101473;28;20036;-78
2024/01/31 06:34:59;;;;;;;1999.90;999.90;;;3.50;87.10;;;;;;5083436;28;20435;-81
2024/01/31 06:37:26;;;;;;;1999.90;999.90;;;3.50;87.10;;;;;;5104484;27;20114;-81
2024/01/31 06:39:52;;;;;;;1999.90;999.90;;;3.50;87.10;;;;;;5091625;27;20035;-74
2024/01/31 06:42:18;;;;;;;1999.90;999.90;;;3.50;87.30;;;;;;5107582;27;20024;-77
2024/01/31 06:44:43;;;;;;;1999.90;999.90;;;3.50;87.30;;;;;;5087476;27;20031;-76
2024/01/31 06:47:09;;;;;;;1999.90;999.90;;;3.40;87.20;;;;;;5102564;27;20051;-75
2024/01/31 06:49:35;;;;;;;1999.90;999.90;;;3.40;87.50;;;;;;5103284;27;20032;-76
2024/01/31 06:52:00;;;;;;;1999.90;999.90;;;3.40;87.60;;;;;;5087750;28;20118;-78
2024/01/31 06:54:26;;;;;;;1999.90;999.90;;;3.40;87.80;;;;;;5084490;28;20550;-77
2024/01/31 06:56:51;;;;;;;1999.90;999.90;;;3.40;87.90;;;;;;5101413;27;20074;-76
2024/01/31 06:59:17;;;;;;;1999.90;999.90;;;3.40;88.30;;;;;;5081793;28;20024;-75
2024/01/31 07:01:43;;;;;;;1999.90;999.90;;;3.40;88.30;;;;;;5100276;28;20489;-76
2024/01/31 07:04:09;;;;;;;1999.90;999.90;;;3.30;88.50;;;;;;5088036;27;20036;-78
2024/01/31 07:06:34;;;;;;;1999.90;999.90;;;3.40;88.70;;;;;;5105009;27;20027;-76
2024/01/31 07:09:00;;;;;;;1999.90;999.90;;;3.40;88.70;;;;;;5101199;28;20042;-78
2024/01/31 07:11:26;;;;;;;1999.90;999.90;;;3.50;88.90;;;;;;5073629;28;20484;-77
2024/01/31 07:13:51;;;;;;;1999.90;999.90;;;3.50;88.70;;;;;;5105002;28;20509;-79
2024/01/31 07:16:17;;;;;;;1999.90;999.90;;;3.50;88.60;;;;;;5071435;28;20109;-76
2024/01/31 07:18:43;;;;;;;1999.90;999.90;;;3.50;88.30;;;;;;5091227;28;20035;-76
2024/01/31 07:21:10;;;;;;;1999.90;999.90;;;3.50;88.40;;;;;;5086385;28;20057;-78
2024/01/31 07:23:36;;;;;;;1999.90;999.90;;;3.50;88.70;;;;;;5102338;28;20019;-76
2024/01/31 07:26:02;;;;;;;1999.90;999.90;;;3.60;88.60;;;;;;5087775;28;20054;-77
2024/01/31 07:28:29;;;;;;;1999.90;999.90;;;3.60;88.30;;;;;;5102953;27;20028;-76
2024/01/31 07:30:55;;;;;;;1999.90;999.90;;;3.60;88.00;;;;;;5082944;28;20028;-78
2024/01/31 07:33:20;;;;;;;1999.90;999.90;;;3.60;88.10;;;;;;5087432;28;20686;-78
2024/01/31 07:35:46;;;;;;;1999.90;999.90;;;3.70;88.00;;;;;;5083162;28;20106;-75
2024/01/31 07:38:12;;;;;;;1999.90;999.90;;;3.70;88.00;;;;;;5087840;27;20032;-76
2024/01/31 07:40:40;;;;;;;1999.90;999.90;;;3.70;87.80;;;;;;5071618;28;20024;-78
2024/01/31 07:43:06;;;;;;;1999.90;999.90;;;3.70;88.00;;;;;;5103082;28;20028;-77
2024/01/31 07:45:32;;;;;;;1999.90;999.90;;;3.70;88.00;;;;;;5086035;28;20500;-76
2024/01/31 07:47:58;;;;;;;1999.90;999.90;;;3.70;88.00;;;;;;5103403;27;20539;-77
2024/01/31 07:50:23;;;;;;;1999.90;999.90;;;3.70;87.80;;;;;;5087818;28;20032;-76
2024/01/31 07:52:49;;;;;;;1999.90;999.90;;;3.70;87.80;;;;;;5106433;27;20503;-79
2024/01/31 07:55:15;;;;;;;1999.90;999.90;;;3.80;87.80;;;;;;5099144;28;20065;-76
2024/01/31 07:57:41;;;;;;;1999.90;999.90;;;3.80;87.90;;;;;;5086222;28;20157;-78
2024/01/31 08:00:07;;;;;;;1999.90;999.90;;;3.80;87.80;;;;;;5084223;28;20473;-76
2024/01/31 08:02:33;;;;;;;1999.90;999.90;;;3.90;87.50;;;;;;5087645;28;20565;-76
2024/01/31 08:04:59;;;;;;;1999.90;999.90;;;3.80;87.40;;;;;;5104922;28;20106;-77
2024/01/31 08:07:25;;;;;;;1999.90;999.90;;;3.80;87.50;;;;;;5087133;27;20024;-77
2024/01/31 08:09:51;;;;;;;1999.90;999.90;;;3.90;88.00;;;;;;5086389;28;20481;-78
2024/01/31 08:12:17;;;;;;;1999.90;999.90;;;3.90;87.90;;;;;;5085694;28;20032;-76
2024/01/31 08:14:43;;;;;;;1999.90;999.90;;;3.90;87.70;;;;;;5073562;28;20513;-79
2024/01/31 08:17:10;;;;;;;1999.90;999.90;;;4.00;87.90;;;;;;5093970;27;20035;-77
2024/01/31 08:19:36;;;;;;;1999.90;999.90;;;4.00;87.60;;;;;;5100602;27;20066;-77
2024/01/31 08:22:03;;;;;;;1999.90;999.90;;;4.00;87.60;;;;;;5084485;28;20055;-76
2024/01/31 08:24:29;;;;;;;1999.90;999.90;;;4.00;87.60;;;;;;5103220;28;20528;-76
2024/01/31 08:26:55;;;;;;;1999.90;999.90;;;4.00;87.80;;;;;;5085650;28;20028;-77
2024/01/31 08:29:20;;;;;;;1999.90;999.90;;;4.00;87.60;;;;;;5101819;28;20127;-79
2024/01/31 08:31:46;;;;;;;1999.90;999.90;;;4.00;87.30;;;;;;5090082;27;20027;-76
2024/01/31 08:34:13;;;;;;;1999.90;999.90;;;4.10;87.60;;;;;;5086432;28;20493;-76
2024/01/31 08:36:39;;;;;;;1999.90;999.90;;;4.20;87.80;;;;;;5100985;28;20051;-77
2024/01/31 08:39:05;;;;;;;1999.90;999.90;;;4.30;87.10;;;;;;5085511;27;20139;-77
2024/01/31 08:41:31;;;;;;;1999.90;999.90;;;4.30;86.90;;;;;;5082529;28;20085;-78
2024/01/31 08:43:57;;;;;;;1999.90;999.90;;;4.40;87.00;;;;;;5071819;28;20035;-76
2024/01/31 08:46:26;;;;;;;1999.90;999.90;;;4.50;86.80;;;;;;5067770;28;20035;-77
2024/01/31 08:48:51;;;;;;;1999.90;999.90;;;4.50;86.60;;;;;;5086072;28;20572;-78
2024/01/31 08:51:18;;;;;;;1999.90;999.90;;;4.60;86.50;;;;;;5067526;28;20032;-77
2024/01/31 08:53:44;;;;;;;1999.90;999.90;;;4.60;87.20;;;;;;5100199;28;20413;-77
2024/01/31 08:56:10;;;;;;;1999.90;999.90;;;4.70;86.30;;;;;;5103583;28;20172;-78
2024/01/31 08:58:35;;;;;;;1999.90;999.90;;;4.70;86.20;;;;;;5103798;28;20070;-76
2024/01/31 09:01:01;;;;;;;1999.90;999.90;;;4.90;85.90;;;;;;5102205;28;20638;-78
2024/01/31 09:03:27;;;;;;;1999.90;999.90;;;5.00;85.90;;;;;;5083407;28;20055;-78
2024/01/31 09:05:53;;;;;;;1999.90;999.90;;;5.20;86.30;;;;;;5099753;28;20101;-77
2024/01/31 09:08:20;;;;;;;1999.90;999.90;;;5.40;85.50;;;;;;5099394;28;20059;-77
2024/01/31 09:10:46;;;;;;;1999.90;999.90;;;5.40;85.30;;;;;;5081598;28;20047;-78
2024/01/31 09:13:11;;;;;;;1999.90;999.90;;;5.50;84.90;;;;;;5101062;28;20020;-78
2024/01/31 09:15:37;;;;;;;1999.90;999.90;;;5.60;84.20;;;;;;5100704;28;20052;-78
2024/01/31 09:21:28;;;;;;;1999.90;999.90;;;5.80;84.20;;;;;;5105911;28;20024;-78
2024/01/31 09:23:55;;;;;;;1999.90;999.90;;;6.20;83.80;;;;;;5073155;28;20028;-77
2024/01/31 09:26:21;;;;;;;1999.90;999.90;;;6.20;82.70;;;;;;5089340;28;20024;-76
2024/01/31 09:28:47;;;;;;;1999.90;999.90;;;6.40;81.70;;;;;;5085709;28;20046;-76
2024/01/31 09:31:26;;;;;;;1999.90;999.90;;;6.50;81.00;;;;;;5107171;28;20027;-76
2024/01/31 09:33:54;;;;;;;1999.90;999.90;;;6.50;80.60;;;;;;5101476;27;20031;-76
2024/01/31 09:36:21;;;;;;;1999.90;999.90;;;6.60;80.50;;;;;;5088988;27;20028;-78
2024/01/31 09:38:47;;;;;;;1999.90;999.90;;;6.60;79.80;;;;;;5103723;28;20035;-78
2024/01/31 09:41:15;;;;;;;1999.90;999.90;;;6.80;80.00;;;;;;5088131;28;20058;-78
2024/01/31 09:43:40;;;;;;;1999.90;999.90;;;6.80;79.40;;;;;;5103798;28;20085;-77
2024/01/31 09:46:07;;;;;;;1999.90;999.90;;;6.90;81.10;;;;;;5093899;28;20031;-77
2024/01/31 09:48:33;;;;;;;1999.90;999.90;;;7.30;79.40;;;;;;5091365;28;20112;-79
2024/01/31 09:51:01;;;;;;;1999.90;999.90;;;7.40;78.60;;;;;;5107978;28;20032;-77
2024/01/31 09:53:27;;;;;;;1999.90;999.90;;;7.10;77.20;;;;;;5106891;28;20038;-77
2024/01/31 09:55:56;;;;;;;1999.90;999.90;;;7.10;77.50;;;;;;5104403;28;20035;-77
2024/01/31 09:58:22;;;;;;;1999.90;999.90;;;6.90;77.50;;;;;;5102532;28;20056;-78
2024/01/31 10:00:50;;;;;;;1999.90;999.90;;;6.80;78.00;;;;;;5091554;27;20437;-77
2024/01/31 10:03:16;;;;;;;1999.90;999.90;;;6.70;78.80;;;;;;5106448;28;20042;-77
2024/01/31 10:05:42;;;;;;;1999.90;999.90;;;6.70;77.50;;;;;;5090321;28;20032;-78
2024/01/31 10:08:08;;;;;;;1999.90;999.90;;;6.70;77.10;;;;;;5087171;28;20719;-76
2024/01/31 10:10:34;;;;;;;1999.90;999.90;;;6.70;77.50;;;;;;5086395;28;20033;-78
2024/01/31 10:12:59;;;;;;;1999.90;999.90;;;6.60;77.40;;;;;;5093529;28;20567;-77
2024/01/31 10:15:25;;;;;;;1999.90;999.90;;;6.40;77.40;;;;;;5103161;28;20127;-77
2024/01/31 10:17:53;;;;;;;1999.90;999.90;;;6.40;78.00;;;;;;5105937;27;20032;-78
2024/01/31 10:20:19;;;;;;;1999.90;999.90;;;6.30;78.30;;;;;;5084976;28;20038;-77
2024/01/31 10:22:45;;;;;;;1999.90;999.90;;;6.30;78.30;;;;;;5088437;28;20039;-78
2024/01/31 10:25:16;;;;;;;1999.90;999.90;;;6.40;78.30;;;;;;5102190;27;20085;-78
2024/01/31 10:27:44;;;;;;;1999.90;999.90;;;6.30;78.40;;;;;;5087554;28;20024;-78
2024/01/31 10:30:11;;;;;;;1999.90;999.90;;;6.40;78.70;;;;;;5084776;28;20126;-78
2024/01/31 10:32:38;;;;;;;1999.90;999.90;;;6.30;78.70;;;;;;5105013;28;20019;-77
2024/01/31 10:35:05;;;;;;;1999.90;999.90;;;6.40;78.80;;;;;;5085106;28;20038;-78
2024/01/31 10:37:32;;;;;;;1999.90;999.90;;;6.40;78.50;;;;;;5089076;27;20035;-78
2024/01/31 10:39:59;;;;;;;1999.90;999.90;;;6.30;79.20;;;;;;5107275;27;20442;-77
2024/01/31 10:42:26;;;;;;;1999.90;999.90;;;6.20;79.30;;;;;;5086446;28;20345;-78
2024/01/31 10:44:52;;;;;;;1999.90;999.90;;;6.10;79.90;;;;;;5103756;28;20027;-77
2024/01/31 10:47:18;;;;;;;1999.90;999.90;;;6.10;80.10;;;;;;5104570;27;20015;-77
2024/01/31 10:49:44;;;;;;;1999.90;999.90;;;6.30;80.40;;;;;;5101701;27;20386;-77
2024/01/31 10:52:13;;;;;;;1999.90;999.90;;;6.50;80.50;;;;;;5114026;27;20032;-77
2024/01/31 10:54:47;;;;;;;1999.90;999.90;;;6.60;79.40;;;;;;5071052;28;20058;-79
2024/01/31 10:57:15;;;;;;;1999.90;999.90;;;6.70;78.30;;;;;;5090699;28;20032;-78
2024/01/31 10:59:40;;;;;;;1999.90;999.90;;;6.90;78.10;;;;;;5093719;27;20035;-78
2024/01/31 11:02:14;;;;;;;1999.90;999.90;;;7.30;77.40;;;;;;5101511;28;20039;-79
2024/01/31 11:04:41;;;;;;;1999.90;999.90;;;7.30;76.30;;;;;;5106954;28;20031;-78
2024/01/31 11:07:20;;;;;;;1999.90;999.90;;;7.70;77.40;;;;;;5094735;27;20034;-77
2024/01/31 11:09:48;;;;;;;1999.90;999.90;;;7.90;74.50;;;;;;5107171;28;20065;-77
2024/01/31 11:12:15;;;;;;;1999.90;999.90;;;8.00;74.40;;;;;;5086009;28;21276;-77
2024/01/31 11:14:43;;;;;;;1999.90;999.90;;;8.00;75.80;;;;;;5093172;28;20053;-78
2024/01/31 11:17:10;;;;;;;1999.90;999.90;;;8.10;75.70;;;;;;5062515;28;20045;-78
2024/01/31 11:19:48;;;;;;;1999.90;999.90;;;8.10;75.30;;;;;;5063170;28;20036;-77
2024/01/31 11:22:14;;;;;;;1999.90;999.90;;;8.70;75.00;;;;;;5061520;28;20530;-77
2024/01/31 11:24:49;;;;;;;1999.90;999.90;;;8.40;73.70;;;;;;5064281;28;20128;-77
2024/01/31 11:27:16;;;;;;;1999.90;999.90;;;8.60;74.60;;;;;;5064657;28;20040;-81
2024/01/31 11:29:50;;;;;;;1999.90;999.90;;;8.60;73.70;;;;;;5056791;28;20036;-80
2024/01/31 11:32:23;;;;;;;1999.90;999.90;;;8.70;74.30;;;;;;5063640;28;20024;-79
2024/01/31 11:34:59;;;;;;;1999.90;999.90;;;8.70;74.80;;;;;;5061016;28;20025;-82
2024/01/31 11:37:25;;;;;;;1999.90;999.90;;;8.60;74.70;;;;;;5061899;28;20699;-82
2024/01/31 11:39:50;;;;;;;1999.90;999.90;;;8.40;74.30;;;;;;5058314;28;20041;-79
2024/01/31 11:42:16;;;;;;;1999.90;999.90;;;8.50;75.50;;;;;;5061981;28;20028;-78
2024/01/31 11:44:43;;;;;;;1999.90;999.90;;;8.40;75.40;;;;;;5058773;28;20025;-79
2024/01/31 11:47:09;;;;;;;1999.90;999.90;;;8.30;75.40;;;;;;5056853;28;20032;-81
2024/01/31 11:49:35;;;;;;;1999.90;999.90;;;8.40;75.80;;;;;;5063336;28;20039;-84
2024/01/31 11:52:03;;;;;;;1999.90;999.90;;;8.70;74.60;;;;;;5065170;28;20418;-77
2024/01/31 11:54:30;;;;;;;1999.90;999.90;;;9.10;74.00;;;;;;5058180;28;20045;-79
2024/01/31 11:56:56;;;;;;;1999.90;999.90;;;9.40;73.20;;;;;;5059010;28;20058;-82
2024/01/31 11:59:22;;;;;;;1999.90;999.90;;;9.50;72.10;;;;;;5060267;28;20475;-84
2024/01/31 12:01:48;;;;;;;1999.90;999.90;;;9.20;72.20;;;;;;5061701;28;20660;-83
2024/01/31 12:04:14;;;;;;;1999.90;999.90;;;8.90;73.20;;;;;;5060658;28;20071;-81
2024/01/31 12:06:40;;;;;;;1999.90;999.90;;;8.90;74.50;;;;;;5061477;28;20040;-81
2024/01/31 12:09:05;;;;;;;1999.90;999.90;;;8.70;73.80;;;;;;5065631;28;20032;-85